Time;durP1;ratioP1;P1;durP2;ratioP2;P2;SDS_P1;SDS_P2;PMS_P1;PMS_P2;Temp;Humidity;BMP_temperature;BMP_pressure;BME280_temperature;BME280_humidity;BME280_pressure;Samples;Min_cycle;Max_cycle;Signal;HPM_P1;HPM_P2
2023/11/19 00:01:58;;;;;;;0.30;0.20;;;;;;;11.03;100.00;100027.44;5008199;28;20460;-48
2023/11/19 00:04:24;;;;;;;0.30;0.20;;;;;;;10.99;100.00;100031.13;5007396;28;20515;-49
2023/11/19 00:06:51;;;;;;;0.30;0.20;;;;;;;11.01;100.00;100031.06;4997066;28;20829;-49
2023/11/19 00:09:18;;;;;;;0.30;0.20;;;;;;;11.09;100.00;100042.28;5007084;28;21086;-48
2023/11/19 00:11:44;;;;;;;0.30;0.20;;;;;;;11.09;100.00;100040.50;5001572;28;20451;-48
2023/11/19 00:14:20;;;;;;;0.30;0.20;;;;;;;11.06;100.00;100045.94;5001518;28;20804;-47
2023/11/19 00:16:46;;;;;;;0.30;0.20;;;;;;;11.15;100.00;100042.97;5007406;28;20473;-48
2023/11/19 00:19:12;;;;;;;0.30;0.20;;;;;;;11.16;100.00;100039.38;5008100;28;20451;-47
2023/11/19 00:21:41;;;;;;;0.30;0.20;;;;;;;11.09;100.00;100034.31;5005520;28;20461;-47
2023/11/19 00:24:08;;;;;;;0.30;0.20;;;;;;;11.09;100.00;100029.00;5001143;28;20428;-49
2023/11/19 00:26:34;;;;;;;0.30;0.20;;;;;;;11.20;100.00;100038.34;5007023;28;20990;-48
2023/11/19 00:29:02;;;;;;;0.30;0.20;;;;;;;11.19;100.00;100031.28;5009886;28;20586;-47
2023/11/19 00:31:29;;;;;;;0.30;0.20;;;;;;;11.21;100.00;100021.47;5021199;28;20547;-48
2023/11/19 00:33:55;;;;;;;0.30;0.20;;;;;;;11.26;100.00;100022.19;5001086;28;20461;-49
2023/11/19 00:36:23;;;;;;;0.30;0.20;;;;;;;11.22;100.00;100025.84;5005637;28;20485;-49
2023/11/19 00:38:50;;;;;;;0.30;0.20;;;;;;;11.21;100.00;100032.09;5010918;28;21028;-48
2023/11/19 00:41:16;;;;;;;0.30;0.20;;;;;;;11.30;100.00;100022.94;5004610;28;20568;-49
2023/11/19 00:43:43;;;;;;;0.30;0.20;;;;;;;11.38;100.00;100022.66;5000938;28;20453;-47
2023/11/19 00:46:11;;;;;;;0.30;0.20;;;;;;;11.30;100.00;100022.06;5004788;28;20456;-48
2023/11/19 00:48:37;;;;;;;0.30;0.20;;;;;;;11.21;100.00;100009.94;5007287;28;20453;-48
2023/11/19 00:51:04;;;;;;;0.30;0.20;;;;;;;11.27;100.00;100007.09;5002663;28;20969;-48
2023/11/19 00:53:33;;;;;;;0.30;0.20;;;;;;;11.32;100.00;100007.78;5000651;28;20547;-48
2023/11/19 00:56:00;;;;;;;0.30;0.20;;;;;;;11.35;100.00;100002.34;5013304;28;20551;-49
2023/11/19 00:58:26;;;;;;;0.30;0.20;;;;;;;11.36;100.00;100001.41;5000187;28;20555;-49
2023/11/19 01:00:53;;;;;;;0.30;0.20;;;;;;;11.27;100.00;100002.63;5004709;28;20484;-48
2023/11/19 01:03:20;;;;;;;0.30;0.20;;;;;;;11.36;100.00;99996.09;5009615;28;20460;-48
2023/11/19 01:05:47;;;;;;;0.30;0.20;;;;;;;11.33;100.00;100001.53;5004969;28;20463;-48
2023/11/19 01:08:13;;;;;;;0.30;0.20;;;;;;;11.38;100.00;100007.56;5000570;28;21034;-49
2023/11/19 01:10:40;;;;;;;0.30;0.20;;;;;;;11.41;100.00;100017.22;5002631;28;20536;-48
2023/11/19 01:13:06;;;;;;;0.30;0.20;;;;;;;11.44;100.00;100003.81;5007188;28;20500;-48
2023/11/19 01:15:33;;;;;;;0.30;0.20;;;;;;;11.24;100.00;99977.94;5001270;28;20461;-49
2023/11/19 01:18:01;;;;;;;0.30;0.20;;;;;;;11.37;100.00;100002.28;5006632;28;20572;-48
2023/11/19 01:20:28;;;;;;;0.30;0.20;;;;;;;11.33;100.00;99992.69;5005476;28;20551;-49
2023/11/19 01:22:54;;;;;;;0.30;0.20;;;;;;;11.29;100.00;100007.91;4999878;28;20491;-48
2023/11/19 01:25:21;;;;;;;0.30;0.20;;;;;;;11.34;100.00;99994.41;5002033;28;20487;-49
2023/11/19 01:27:48;;;;;;;0.30;0.20;;;;;;;11.40;100.00;99973.78;5006773;28;20485;-47
2023/11/19 01:30:14;;;;;;;0.30;0.20;;;;;;;11.44;100.00;100007.34;5013902;28;20491;-49
2023/11/19 01:32:41;;;;;;;0.30;0.20;;;;;;;11.37;100.00;100000.47;5012333;28;20833;-49
2023/11/19 01:35:07;;;;;;;0.30;0.20;;;;;;;11.41;100.00;100022.56;5001798;28;20507;-48
2023/11/19 01:37:35;;;;;;;0.30;0.20;;;;;;;11.32;100.00;100013.09;5011327;28;20458;-49
2023/11/19 01:40:06;;;;;;;0.30;0.20;;;;;;;11.32;100.00;99998.94;5001744;28;20457;-48
2023/11/19 01:42:39;;;;;;;0.30;0.20;;;;;;;11.42;100.00;99987.91;5012794;28;20562;-48
2023/11/19 01:45:10;;;;;;;0.30;0.20;;;;;;;11.55;100.00;99981.19;5012376;28;20431;-49
2023/11/19 01:47:37;;;;;;;0.30;0.20;;;;;;;11.43;100.00;99975.47;5000519;28;20838;-49
2023/11/19 01:50:06;;;;;;;0.33;0.27;;;;;;;11.38;100.00;99959.66;4999905;28;20489;-49
2023/11/19 01:52:36;;;;;;;0.30;0.20;;;;;;;11.53;100.00;99955.56;5010595;28;20522;-48
2023/11/19 01:55:04;;;;;;;0.30;0.20;;;;;;;11.45;100.00;99953.19;5001752;28;20445;-48
2023/11/19 01:57:30;;;;;;;0.30;0.20;;;;;;;11.41;100.00;99948.03;5004155;28;20876;-49
2023/11/19 01:59:57;;;;;;;0.30;0.20;;;;;;;11.51;100.00;99950.31;5005969;28;20448;-48
2023/11/19 02:02:26;;;;;;;0.30;0.20;;;;;;;11.55;100.00;99933.28;5013098;28;20797;-48
2023/11/19 02:04:53;;;;;;;0.30;0.20;;;;;;;11.52;100.00;99940.53;4999713;28;20457;-49
2023/11/19 02:07:20;;;;;;;0.30;0.20;;;;;;;11.47;100.00;99943.34;5002445;28;20477;-47
2023/11/19 02:09:46;;;;;;;0.30;0.20;;;;;;;11.50;100.00;99937.03;5005615;28;20489;-49
2023/11/19 02:12:13;;;;;;;0.30;0.20;;;;;;;11.43;100.00;99939.06;5002262;28;20457;-47
2023/11/19 02:14:40;;;;;;;0.30;0.20;;;;;;;11.50;100.00;99932.56;4998271;28;20826;-50
2023/11/19 02:17:06;;;;;;;0.30;0.20;;;;;;;11.57;100.00;99939.41;5001859;28;20490;-48
2023/11/19 02:19:33;;;;;;;0.30;0.20;;;;;;;11.47;100.00;99931.81;5006037;28;20503;-48
2023/11/19 02:22:00;;;;;;;0.30;0.20;;;;;;;11.55;100.00;99937.72;4997007;28;20958;-48
2023/11/19 02:24:31;;;;;;;0.30;0.20;;;;;;;11.60;100.00;99938.41;5005968;28;20465;-49
2023/11/19 02:27:10;;;;;;;0.30;0.20;;;;;;;11.62;100.00;99927.69;5002844;28;20476;-48
2023/11/19 02:29:37;;;;;;;0.30;0.20;;;;;;;11.64;100.00;99925.84;5005417;28;20479;-50
2023/11/19 02:32:04;;;;;;;0.30;0.20;;;;;;;11.65;100.00;99914.25;5014294;28;20488;-49
2023/11/19 02:34:31;;;;;;;0.30;0.20;;;;;;;11.83;100.00;99924.25;5005197;28;20471;-49
2023/11/19 02:36:57;;;;;;;0.30;0.20;;;;;;;11.72;100.00;99918.44;5005159;28;20461;-51
2023/11/19 02:39:24;;;;;;;0.30;0.20;;;;;;;11.71;100.00;99912.25;4997129;28;20464;-48
2023/11/19 02:41:52;;;;;;;0.30;0.20;;;;;;;11.73;100.00;99901.53;5005127;28;20506;-49
2023/11/19 02:44:19;;;;;;;0.30;0.20;;;;;;;11.85;100.00;99899.28;4999057;28;20874;-48
2023/11/19 02:46:48;;;;;;;0.30;0.20;;;;;;;11.77;100.00;99903.13;5002883;28;20512;-49
2023/11/19 02:49:15;;;;;;;0.30;0.20;;;;;;;11.75;100.00;99905.88;4999570;28;20487;-49
2023/11/19 02:51:42;;;;;;;0.30;0.20;;;;;;;11.84;100.00;99902.88;4997350;28;20437;-49
2023/11/19 02:54:08;;;;;;;0.30;0.20;;;;;;;11.86;100.00;99905.47;5004203;28;20495;-48
2023/11/19 02:56:37;;;;;;;0.30;0.20;;;;;;;11.85;100.00;99909.94;5005777;28;20830;-49
2023/11/19 02:59:11;;;;;;;0.30;0.20;;;;;;;11.86;100.00;99911.66;5003991;28;20453;-49
2023/11/19 03:01:43;;;;;;;0.30;0.20;;;;;;;11.94;100.00;99905.19;5005257;28;20487;-48
2023/11/19 03:04:12;;;;;;;0.30;0.20;;;;;;;11.94;100.00;99903.38;5001637;28;20946;-50
2023/11/19 03:06:39;;;;;;;0.30;0.20;;;;;;;11.83;100.00;99892.28;5004636;28;20489;-48
2023/11/19 03:09:10;;;;;;;0.30;0.20;;;;;;;11.83;100.00;99892.28;5002473;28;20514;-50
2023/11/19 03:11:37;;;;;;;0.30;0.20;;;;;;;11.81;100.00;99888.81;4999617;28;20499;-48
2023/11/19 03:14:03;;;;;;;0.30;0.20;;;;;;;11.70;100.00;99881.22;5011375;28;20456;-48
2023/11/19 03:16:30;;;;;;;0.30;0.20;;;;;;;11.80;100.00;99881.78;5002645;28;20900;-50
2023/11/19 03:18:56;;;;;;;0.30;0.20;;;;;;;11.84;100.00;99880.72;5004207;28;21086;-47
2023/11/19 03:21:31;;;;;;;0.30;0.20;;;;;;;11.84;100.00;99875.38;5009205;28;20432;-48
2023/11/19 03:24:01;;;;;;;0.30;0.20;;;;;;;11.74;100.00;99868.66;5007950;28;20437;-49
2023/11/19 03:26:27;;;;;;;0.30;0.20;;;;;;;11.82;100.00;99864.78;5002432;28;20478;-48
2023/11/19 03:28:54;;;;;;;0.30;0.20;;;;;;;11.86;100.00;99865.53;5010226;28;20877;-48
2023/11/19 03:31:20;;;;;;;0.30;0.20;;;;;;;11.89;100.00;99865.41;5023211;28;20492;-49
2023/11/19 03:33:47;;;;;;;0.30;0.20;;;;;;;11.98;100.00;99864.16;5002086;28;20449;-49
2023/11/19 03:36:14;;;;;;;0.30;0.20;;;;;;;11.83;100.00;99852.34;5007691;28;20453;-48
2023/11/19 03:38:42;;;;;;;0.30;0.20;;;;;;;11.85;100.00;99867.31;5012033;28;20438;-48
2023/11/19 03:41:12;;;;;;;0.30;0.20;;;;;;;11.96;100.00;99868.69;5003440;28;20451;-49
2023/11/19 03:43:39;;;;;;;0.30;0.20;;;;;;;11.99;100.00;99866.75;5005412;28;20452;-48
2023/11/19 03:46:21;;;;;;;0.30;0.20;;;;;;;12.02;100.00;99866.63;5004734;28;20456;-49
2023/11/19 03:48:49;;;;;;;0.30;0.20;;;;;;;12.07;100.00;99862.00;5001909;28;20535;-48
2023/11/19 03:51:16;;;;;;;0.30;0.20;;;;;;;12.05;100.00;99874.50;5003935;28;20535;-49
2023/11/19 03:53:43;;;;;;;0.30;0.20;;;;;;;12.07;100.00;99870.00;5008603;28;20543;-48
2023/11/19 03:56:11;;;;;;;0.30;0.20;;;;;;;12.05;100.00;99874.50;5006517;28;20488;-50
2023/11/19 03:58:38;;;;;;;0.30;0.20;;;;;;;12.07;100.00;99875.31;5005771;28;20516;-48
2023/11/19 04:01:05;;;;;;;0.30;0.20;;;;;;;12.04;100.00;99871.88;5012249;28;20448;-50
2023/11/19 04:03:33;;;;;;;0.30;0.20;;;;;;;11.99;100.00;99864.09;5008758;28;20456;-48
2023/11/19 04:05:59;;;;;;;0.30;0.20;;;;;;;12.01;100.00;99864.03;5007824;28;20453;-48
2023/11/19 04:08:26;;;;;;;0.30;0.20;;;;;;;12.11;100.00;99849.41;5001339;28;20480;-48
2023/11/19 04:10:53;;;;;;;0.30;0.20;;;;;;;12.18;100.00;99845.53;5005673;28;20518;-48
2023/11/19 04:13:19;;;;;;;0.30;0.20;;;;;;;12.09;100.00;99844.16;5001515;28;20456;-48
2023/11/19 04:15:46;;;;;;;0.30;0.20;;;;;;;12.11;100.00;99846.75;5001835;28;20931;-48
2023/11/19 04:18:12;;;;;;;0.30;0.20;;;;;;;12.09;100.00;99841.47;5008282;28;20479;-48
2023/11/19 04:20:38;;;;;;;0.30;0.20;;;;;;;12.13;100.00;99852.88;5007608;28;20479;-49
2023/11/19 04:23:05;;;;;;;0.30;0.20;;;;;;;12.23;100.00;99843.56;5000485;28;20507;-50
2023/11/19 04:25:31;;;;;;;0.30;0.20;;;;;;;12.15;100.00;99851.88;5013890;28;20897;-48
2023/11/19 04:27:58;;;;;;;0.30;0.20;;;;;;;12.22;100.00;99859.63;5001896;28;20849;-48
2023/11/19 04:30:25;;;;;;;0.30;0.20;;;;;;;12.24;100.00;99849.75;5021455;28;20471;-51
2023/11/19 04:32:51;;;;;;;0.30;0.20;;;;;;;12.16;100.00;99840.28;5001083;28;20459;-49
2023/11/19 04:35:19;;;;;;;0.30;0.20;;;;;;;12.28;100.00;99841.56;5001478;28;20435;-49
2023/11/19 04:37:45;;;;;;;0.30;0.20;;;;;;;12.19;100.00;99836.59;5013838;28;20492;-49
2023/11/19 04:40:12;;;;;;;0.30;0.20;;;;;;;12.13;100.00;99828.88;5001366;28;20446;-49
2023/11/19 04:42:41;;;;;;;0.30;0.20;;;;;;;12.21;100.00;99840.09;5007225;28;20902;-48
2023/11/19 04:45:10;;;;;;;0.30;0.20;;;;;;;12.31;100.00;99841.41;5007633;28;20449;-48
2023/11/19 04:47:37;;;;;;;0.30;0.20;;;;;;;12.45;100.00;99844.34;5002412;28;20479;-49
2023/11/19 04:50:04;;;;;;;0.30;0.20;;;;;;;12.29;100.00;99845.94;5000797;28;20544;-49
2023/11/19 04:52:30;;;;;;;0.30;0.20;;;;;;;12.41;100.00;99831.25;5005451;28;20818;-49
2023/11/19 04:54:57;;;;;;;0.30;0.20;;;;;;;12.33;100.00;99844.88;5007246;28;20521;-48
2023/11/19 04:57:24;;;;;;;0.30;0.20;;;;;;;12.32;100.00;99832.50;5002285;28;20475;-49
2023/11/19 04:59:50;;;;;;;0.30;0.20;;;;;;;12.34;100.00;99833.31;5012126;28;20832;-49
2023/11/19 05:02:17;;;;;;;0.30;0.20;;;;;;;12.39;100.00;99833.09;5013662;28;20453;-49
2023/11/19 05:04:44;;;;;;;0.30;0.20;;;;;;;12.40;100.00;99841.03;5000529;28;20935;-48
2023/11/19 05:07:11;;;;;;;0.30;0.20;;;;;;;12.42;100.00;99841.81;5004777;28;20485;-48
2023/11/19 05:09:37;;;;;;;0.30;0.20;;;;;;;12.43;100.00;99840.91;5006378;28;20434;-50
2023/11/19 05:12:04;;;;;;;0.30;0.20;;;;;;;12.41;100.00;99833.91;5002301;28;20551;-49
2023/11/19 05:14:30;;;;;;;0.30;0.20;;;;;;;12.36;100.00;99835.91;5000222;28;20560;-49
2023/11/19 05:16:57;;;;;;;0.30;0.20;;;;;;;12.45;100.00;99843.50;5004345;28;20534;-48
2023/11/19 05:19:23;;;;;;;0.30;0.20;;;;;;;12.47;100.00;99828.28;5006152;28;20459;-48
2023/11/19 05:21:52;;;;;;;0.30;0.20;;;;;;;12.48;100.00;99823.84;5002893;28;20448;-49
2023/11/19 05:24:19;;;;;;;0.30;0.20;;;;;;;12.51;100.00;99829.03;5000000;28;20453;-48
2023/11/19 05:26:45;;;;;;;0.30;0.20;;;;;;;12.37;100.00;99824.31;5003536;28;20505;-49
2023/11/19 05:29:12;;;;;;;0.30;0.20;;;;;;;12.43;100.00;99829.38;5003039;28;20480;-49
2023/11/19 05:31:38;;;;;;;0.30;0.20;;;;;;;12.46;100.00;99829.22;5018552;28;20572;-48
2023/11/19 05:34:07;;;;;;;0.30;0.20;;;;;;;12.43;100.00;99835.56;5005081;28;20937;-49
2023/11/19 05:36:34;;;;;;;0.30;0.20;;;;;;;12.38;100.00;99824.25;5002475;28;20522;-48
2023/11/19 05:39:00;;;;;;;0.30;0.20;;;;;;;12.49;100.00;99828.25;4999931;28;20882;-49
2023/11/19 05:41:27;;;;;;;0.30;0.20;;;;;;;12.37;100.00;99826.97;5002317;28;21002;-49
2023/11/19 05:43:54;;;;;;;0.30;0.20;;;;;;;12.42;100.00;99833.84;5006726;28;20449;-48
2023/11/19 05:46:21;;;;;;;0.30;0.20;;;;;;;12.43;100.00;99832.03;5004429;28;20973;-50
2023/11/19 05:48:48;;;;;;;0.30;0.20;;;;;;;12.46;100.00;99822.09;4999700;28;20459;-49
2023/11/19 05:51:15;;;;;;;0.30;0.20;;;;;;;12.45;100.00;99833.69;5001852;28;20848;-49
2023/11/19 05:53:42;;;;;;;0.30;0.20;;;;;;;12.40;100.00;99834.84;5007616;28;20948;-48
2023/11/19 05:56:09;;;;;;;0.30;0.20;;;;;;;12.33;100.00;99828.03;5001795;28;20794;-49
2023/11/19 05:58:37;;;;;;;0.30;0.20;;;;;;;12.45;100.00;99830.16;5008328;28;20498;-49
2023/11/19 06:01:04;;;;;;;0.30;0.20;;;;;;;12.46;100.00;99830.09;5012862;28;20426;-48
2023/11/19 06:03:31;;;;;;;0.30;0.20;;;;;;;12.43;100.00;99834.69;5007130;28;20424;-49
2023/11/19 06:05:58;;;;;;;0.40;0.20;;;;;;;12.49;100.00;99841.59;5005256;28;20434;-49
2023/11/19 06:08:26;;;;;;;0.30;0.20;;;;;;;12.54;100.00;99836.91;4993372;28;20955;-49
2023/11/19 06:10:53;;;;;;;0.30;0.20;;;;;;;12.49;100.00;99846.91;5005963;28;20582;-48
2023/11/19 06:13:21;;;;;;;0.30;0.20;;;;;;;12.46;100.00;99845.22;5002194;28;20462;-50
2023/11/19 06:15:51;;;;;;;0.30;0.20;;;;;;;12.66;100.00;99845.22;4993861;28;20461;-49
2023/11/19 06:18:19;;;;;;;0.30;0.20;;;;;;;12.58;100.00;99843.81;5005037;28;20847;-49
2023/11/19 06:20:46;;;;;;;0.30;0.20;;;;;;;12.57;100.00;99844.75;5005723;28;20464;-49
2023/11/19 06:23:13;;;;;;;0.30;0.20;;;;;;;12.79;100.00;99852.69;4999817;28;20460;-48
2023/11/19 06:25:39;;;;;;;0.30;0.20;;;;;;;12.70;100.00;99869.94;4999812;28;20464;-48
2023/11/19 06:28:06;;;;;;;0.30;0.20;;;;;;;12.74;100.00;99872.41;5004216;28;21037;-48
2023/11/19 06:30:32;;;;;;;0.30;0.20;;;;;;;12.75;100.00;99867.97;5015280;28;20430;-48
2023/11/19 06:32:59;;;;;;;0.30;0.20;;;;;;;12.69;100.00;99869.09;5007602;28;20428;-48
2023/11/19 06:35:27;;;;;;;0.30;0.20;;;;;;;12.69;100.00;99868.22;5009803;28;20435;-49
2023/11/19 06:37:54;;;;;;;0.30;0.20;;;;;;;12.64;100.00;99870.22;5011344;28;20491;-48
2023/11/19 06:40:21;;;;;;;0.30;0.20;;;;;;;12.53;100.00;99862.69;5005188;28;20518;-48
2023/11/19 06:42:47;;;;;;;0.30;0.20;;;;;;;12.42;100.00;99867.63;5004608;28;20500;-48
2023/11/19 06:45:14;;;;;;;0.30;0.20;;;;;;;12.38;100.00;99863.38;4999156;28;20484;-47
2023/11/19 06:47:41;;;;;;;0.30;0.20;;;;;;;12.22;100.00;99867.63;4999029;28;21049;-48
2023/11/19 06:50:07;;;;;;;0.30;0.20;;;;;;;11.97;100.00;99871.28;5006561;28;20439;-50
2023/11/19 06:52:34;;;;;;;0.30;0.20;;;;;;;11.78;100.00;99865.78;4998080;28;20500;-48
2023/11/19 06:55:00;;;;;;;0.30;0.20;;;;;;;11.79;100.00;99867.59;4996227;28;20465;-48
2023/11/19 06:57:35;;;;;;;0.30;0.20;;;;;;;11.56;100.00;99860.47;5008130;28;20476;-49
2023/11/19 07:00:02;;;;;;;0.30;0.20;;;;;;;11.64;100.00;99854.84;5004960;28;20811;-49
2023/11/19 07:02:29;;;;;;;0.30;0.20;;;;;;;11.46;100.00;99859.09;5002110;28;20462;-48
2023/11/19 07:04:56;;;;;;;0.30;0.20;;;;;;;11.41;100.00;99860.22;5004994;28;20966;-48
2023/11/19 07:07:23;;;;;;;0.30;0.20;;;;;;;11.42;100.00;99853.97;5002644;28;20530;-48
2023/11/19 07:09:50;;;;;;;0.30;0.20;;;;;;;11.55;100.00;99856.09;4999377;28;20941;-51
2023/11/19 07:12:16;;;;;;;0.30;0.20;;;;;;;11.70;100.00;99856.41;4993073;28;20493;-51
2023/11/19 07:14:43;;;;;;;0.30;0.20;;;;;;;11.69;100.00;99862.66;5005296;28;20524;-51
2023/11/19 07:17:10;;;;;;;0.30;0.20;;;;;;;11.82;100.00;99861.25;5000129;28;20871;-51
2023/11/19 07:19:38;;;;;;;0.30;0.20;;;;;;;11.97;100.00;99867.75;4995204;28;20496;-51
2023/11/19 07:22:06;;;;;;;0.30;0.20;;;;;;;11.98;100.00;99870.34;5003052;28;20424;-51
2023/11/19 07:24:32;;;;;;;0.30;0.20;;;;;;;12.04;100.00;99869.22;5000460;28;21022;-51
2023/11/19 07:26:59;;;;;;;0.30;0.20;;;;;;;11.88;100.00;99863.66;5001586;28;20488;-51
2023/11/19 07:29:26;;;;;;;0.30;0.20;;;;;;;11.86;100.00;99868.19;5015752;28;20430;-51
2023/11/19 07:31:55;;;;;;;0.30;0.20;;;;;;;11.91;100.00;99863.53;5008429;28;20560;-51
2023/11/19 07:34:22;;;;;;;0.30;0.20;;;;;;;11.90;100.00;99860.94;4997139;28;20432;-51
2023/11/19 07:36:48;;;;;;;0.30;0.20;;;;;;;11.79;100.00;99864.94;5004047;28;20865;-51
2023/11/19 07:39:15;;;;;;;0.30;0.20;;;;;;;11.82;100.00;99869.25;5000462;28;20452;-51
2023/11/19 07:41:41;;;;;;;0.30;0.20;;;;;;;11.84;100.00;99870.06;5011693;28;20503;-51
2023/11/19 07:44:08;;;;;;;0.30;0.20;;;;;;;12.01;100.00;99878.22;4998072;28;20427;-51
2023/11/19 07:46:34;;;;;;;0.30;0.20;;;;;;;12.20;100.00;99877.44;5000595;28;20539;-51
2023/11/19 07:49:02;;;;;;;0.30;0.20;;;;;;;12.44;100.00;99887.06;5009601;28;20427;-51
2023/11/19 07:51:29;;;;;;;0.30;0.20;;;;;;;12.67;100.00;99880.75;5004156;28;20467;-51
2023/11/19 07:53:55;;;;;;;0.30;0.20;;;;;;;12.88;100.00;99876.25;4996158;28;20521;-51
2023/11/19 07:56:22;;;;;;;0.30;0.20;;;;;;;12.91;100.00;99870.81;5004816;28;20450;-51
2023/11/19 07:58:48;;;;;;;0.30;0.20;;;;;;;13.01;100.00;99882.78;4997848;28;20479;-51
2023/11/19 08:01:15;;;;;;;0.30;0.20;;;;;;;13.00;100.00;99889.91;5008834;28;20476;-50
2023/11/19 08:03:42;;;;;;;0.30;0.20;;;;;;;13.08;100.00;99892.25;5007830;28;20439;-51
2023/11/19 08:06:24;;;;;;;0.30;0.20;;;;;;;13.30;100.00;99903.72;5008304;28;20435;-51
2023/11/19 08:08:51;;;;;;;0.30;0.20;;;;;;;13.26;100.00;99887.91;5005736;28;20453;-51
2023/11/19 08:11:19;;;;;;;0.30;0.20;;;;;;;13.30;100.00;99902.88;4998589;28;20867;-51
2023/11/19 08:13:46;;;;;;;0.30;0.20;;;;;;;13.39;100.00;99889.06;4996099;28;20455;-51
2023/11/19 08:16:14;;;;;;;0.30;0.20;;;;;;;13.38;100.00;99899.81;5008425;28;20449;-51
2023/11/19 08:18:43;;;;;;;0.30;0.20;;;;;;;13.41;100.00;99894.34;5005109;28;20458;-51
2023/11/19 08:21:10;;;;;;;0.30;0.20;;;;;;;13.44;100.00;99897.75;5001349;28;20423;-51
2023/11/19 08:23:37;;;;;;;0.30;0.20;;;;;;;13.57;100.00;99892.72;5004961;28;20480;-51
2023/11/19 08:26:05;;;;;;;0.30;0.20;;;;;;;13.58;100.00;99902.44;5013273;28;20427;-51
2023/11/19 08:28:34;;;;;;;0.30;0.20;;;;;;;13.57;100.00;99898.91;5014447;28;20456;-51
2023/11/19 08:31:01;;;;;;;0.30;0.20;;;;;;;13.59;100.00;99910.38;5017848;28;20454;-50
2023/11/19 08:33:28;;;;;;;0.30;0.20;;;;;;;13.47;100.00;99912.75;5000257;28;20453;-50
2023/11/19 08:35:54;;;;;;;0.30;0.20;;;;;;;13.49;100.00;99918.91;5007691;28;20453;-51
2023/11/19 08:38:21;;;;;;;0.30;0.20;;;;;;;13.44;100.00;99916.44;5008961;28;20454;-51
2023/11/19 08:40:51;;;;;;;0.30;0.20;;;;;;;13.52;100.00;99916.94;5001083;28;20975;-51
2023/11/19 08:43:18;;;;;;;0.30;0.20;;;;;;;13.50;100.00;99925.97;5010007;28;20481;-51
2023/11/19 08:45:45;;;;;;;0.30;0.20;;;;;;;13.59;100.00;99937.09;5001182;28;20833;-51
2023/11/19 08:48:11;;;;;;;0.30;0.20;;;;;;;13.74;100.00;99924.81;5001428;28;20498;-51
2023/11/19 08:50:38;;;;;;;0.30;0.20;;;;;;;13.78;100.00;99930.88;5007727;28;20453;-51
2023/11/19 08:53:06;;;;;;;0.30;0.20;;;;;;;13.73;100.00;99927.56;4994726;28;20484;-51
2023/11/19 08:55:33;;;;;;;0.30;0.20;;;;;;;13.84;100.00;99923.44;5001198;28;20427;-51
2023/11/19 08:57:59;;;;;;;0.30;0.20;;;;;;;13.94;100.00;99927.38;5001214;28;20444;-50
2023/11/19 09:00:26;;;;;;;0.30;0.20;;;;;;;13.93;100.00;99920.31;5012068;28;20963;-50
2023/11/19 09:02:52;;;;;;;0.30;0.20;;;;;;;14.01;100.00;99911.06;5013202;28;20423;-50
2023/11/19 09:05:19;;;;;;;0.30;0.20;;;;;;;14.21;100.00;99913.63;5005412;28;20508;-51
2023/11/19 09:07:46;;;;;;;0.30;0.20;;;;;;;14.24;100.00;99925.03;5002450;28;20481;-51
2023/11/19 09:10:12;;;;;;;0.30;0.20;;;;;;;14.35;100.00;99913.78;5006897;28;20436;-51
2023/11/19 09:12:39;;;;;;;0.30;0.20;;;;;;;14.22;100.00;99920.69;5006896;28;20488;-51
2023/11/19 09:15:06;;;;;;;0.30;0.20;;;;;;;14.19;100.00;99918.19;5006575;28;20512;-51
2023/11/19 09:17:33;;;;;;;0.30;0.20;;;;;;;14.33;100.00;99925.50;5006597;28;20447;-51
2023/11/19 09:20:00;;;;;;;0.30;0.20;;;;;;;14.23;100.00;99927.78;4997774;28;20935;-50
2023/11/19 09:22:26;;;;;;;0.30;0.20;;;;;;;14.17;100.00;99920.94;5000345;28;20457;-51
2023/11/19 09:24:53;;;;;;;0.30;0.20;;;;;;;14.21;100.00;99917.16;5006038;28;20453;-51
2023/11/19 09:27:20;;;;;;;0.30;0.20;;;;;;;14.21;100.00;99938.53;5006370;28;20526;-51
2023/11/19 09:29:48;;;;;;;0.30;0.20;;;;;;;14.22;100.00;99926.91;5013272;28;20447;-51
2023/11/19 09:32:15;;;;;;;0.30;0.20;;;;;;;14.22;100.00;99936.72;5011452;28;20484;-51
2023/11/19 09:34:42;;;;;;;0.30;0.20;;;;;;;14.20;100.00;99939.50;4997303;28;20931;-51
2023/11/19 09:37:08;;;;;;;0.30;0.20;;;;;;;14.27;100.00;99945.41;5006553;28;20487;-51
2023/11/19 09:39:47;;;;;;;0.30;0.20;;;;;;;14.14;100.00;99945.16;5003460;28;20434;-51
2023/11/19 09:42:14;;;;;;;0.30;0.20;;;;;;;14.12;100.00;99944.38;5003314;28;20501;-51
2023/11/19 09:44:42;;;;;;;0.30;0.20;;;;;;;14.28;100.00;99952.50;5002796;28;20432;-51
2023/11/19 09:47:11;;;;;;;0.30;0.20;;;;;;;14.34;100.00;99951.31;5006505;28;20502;-51
2023/11/19 09:49:38;;;;;;;0.30;0.20;;;;;;;14.40;100.00;99948.34;5004638;28;20503;-51
2023/11/19 09:52:05;;;;;;;0.30;0.20;;;;;;;14.60;100.00;99942.88;4999495;28;21107;-51
2023/11/19 09:54:32;;;;;;;0.30;0.20;;;;;;;14.57;100.00;99950.22;5001602;28;20424;-51
2023/11/19 09:57:02;;;;;;;0.30;0.20;;;;;;;14.76;100.00;99959.88;5006289;28;20553;-51
2023/11/19 09:59:31;;;;;;;0.30;0.20;;;;;;;14.78;100.00;99949.97;5004964;28;20427;-51
2023/11/19 10:01:57;;;;;;;0.30;0.20;;;;;;;14.83;100.00;99960.44;5011217;28;20440;-51
2023/11/19 10:04:29;;;;;;;0.30;0.20;;;;;;;14.93;100.00;99955.47;5001066;28;20541;-51
2023/11/19 10:06:56;;;;;;;0.30;0.20;;;;;;;14.79;100.00;99958.84;5005925;28;20854;-51
2023/11/19 10:09:22;;;;;;;0.30;0.20;;;;;;;14.74;100.00;99953.75;4993539;28;20510;-51
2023/11/19 10:11:49;;;;;;;0.30;0.20;;;;;;;14.81;100.00;99946.28;5006298;28;21096;-51
2023/11/19 10:14:19;;;;;;;0.30;0.20;;;;;;;15.07;100.00;99944.91;5006239;28;20935;-51
2023/11/19 10:16:46;;;;;;;0.30;0.20;;;;;;;15.03;100.00;99956.72;5002948;28;20487;-50
2023/11/19 10:19:19;;;;;;;0.30;0.20;;;;;;;15.18;100.00;99942.53;4999764;28;20454;-51
2023/11/19 10:21:46;;;;;;;0.30;0.20;;;;;;;15.47;99.29;99926.72;5003678;28;20536;-51
2023/11/19 10:24:13;;;;;;;0.30;0.20;;;;;;;15.38;99.38;99930.78;5005650;28;20502;-51
2023/11/19 10:26:57;;;;;;;0.30;0.20;;;;;;;15.52;99.39;99922.84;5003282;28;20455;-51
2023/11/19 10:29:24;;;;;;;0.30;0.20;;;;;;;15.74;99.40;99919.00;5003848;28;20456;-52
2023/11/19 10:31:57;;;;;;;0.30;0.20;;;;;;;15.99;98.68;99922.03;5012548;28;20474;-51
2023/11/19 10:34:43;;;;;;;0.30;0.20;;;;;;;15.83;97.94;99916.69;5001375;28;20416;-51
2023/11/19 10:37:28;;;;;;;0.30;0.20;;;;;;;15.69;98.06;99919.25;5002040;28;20993;-51
2023/11/19 10:39:55;;;;;;;0.30;0.20;;;;;;;15.79;97.98;99922.31;5010681;28;20503;-51
2023/11/19 10:42:22;;;;;;;0.30;0.20;;;;;;;15.75;97.60;99923.41;5007932;28;20424;-51
2023/11/19 10:44:48;;;;;;;0.30;0.20;;;;;;;15.44;96.85;99918.84;5004778;28;20504;-51
2023/11/19 10:47:18;;;;;;;0.30;0.20;;;;;;;15.54;97.16;99931.66;4999960;28;20506;-51
2023/11/19 10:49:48;;;;;;;0.30;0.20;;;;;;;15.44;97.21;99919.72;5002385;28;20428;-51
2023/11/19 10:52:21;;;;;;;0.30;0.20;;;;;;;15.35;97.74;99921.09;4999131;28;20910;-51
2023/11/19 10:54:54;;;;;;;0.30;0.20;;;;;;;15.60;96.68;99911.72;5002682;28;20848;-52
2023/11/19 10:57:24;;;;;;;0.30;0.20;;;;;;;15.59;95.60;99916.22;5000057;28;20546;-51
2023/11/19 10:59:57;;;;;;;0.30;0.20;;;;;;;15.85;95.27;99914.78;4999000;28;20457;-52
2023/11/19 11:02:27;;;;;;;0.30;0.20;;;;;;;15.89;94.84;99910.94;5001358;28;20445;-51
2023/11/19 11:04:55;;;;;;;0.30;0.20;;;;;;;16.04;94.15;99908.38;5011695;28;20431;-51
2023/11/19 11:07:24;;;;;;;0.30;0.20;;;;;;;16.16;93.93;99900.47;5002420;28;20494;-52
2023/11/19 11:10:05;;;;;;;0.30;0.20;;;;;;;16.09;91.45;99900.94;5010649;28;20449;-51
2023/11/19 11:12:36;;;;;;;0.30;0.20;;;;;;;16.16;91.65;99897.78;4999890;28;20549;-51
2023/11/19 11:15:05;;;;;;;0.30;0.20;;;;;;;16.00;90.37;99905.84;5005308;28;20484;-51
2023/11/19 11:17:33;;;;;;;0.30;0.20;;;;;;;16.00;89.49;99911.22;4995520;28;20477;-51
2023/11/19 11:20:00;;;;;;;0.30;0.20;;;;;;;15.87;88.36;99915.53;4999072;28;20464;-51
2023/11/19 11:22:28;;;;;;;0.30;0.20;;;;;;;15.81;87.07;99910.53;5003984;28;20503;-51
2023/11/19 11:25:22;;;;;;;0.30;0.20;;;;;;;15.73;87.27;99925.31;4999987;28;20505;-51
2023/11/19 11:28:21;;;;;;;0.30;0.20;;;;;;;15.75;85.11;99921.59;4999427;28;20506;-52